createdAt,value
2023-02-03T00:01:17.916Z,19.38
2023-02-03T00:03:26.647Z,20.38
2023-02-03T00:05:34.404Z,16.23
2023-02-03T00:07:42.632Z,16.33
2023-02-03T00:09:49.865Z,15.00
2023-02-03T00:11:57.289Z,13.50
2023-02-03T00:14:06.386Z,11.20
2023-02-03T00:16:13.541Z,7.30
2023-02-03T00:18:20.789Z,8.35
2023-02-03T00:20:29.491Z,8.65
2023-02-03T00:22:36.540Z,7.90
2023-02-03T00:24:43.514Z,6.75
2023-02-03T00:26:50.694Z,7.70
2023-02-03T00:28:57.619Z,7.75
2023-02-03T00:31:04.704Z,8.18
2023-02-03T00:33:11.568Z,9.30
2023-02-03T00:35:21.422Z,11.05
2023-02-03T00:37:30.344Z,12.55
2023-02-03T00:39:39.939Z,13.63
2023-02-03T00:41:46.964Z,11.85
2023-02-03T00:43:54.289Z,11.95
2023-02-03T00:46:01.540Z,11.48
2023-02-03T00:48:09.221Z,9.13
2023-02-03T00:50:16.721Z,9.27
2023-02-03T00:52:23.990Z,8.65
2023-02-03T00:54:33.716Z,9.93
2023-02-03T00:56:40.969Z,9.25
2023-02-03T00:58:47.839Z,9.20
2023-02-03T01:00:55.119Z,9.98
2023-02-03T01:03:02.152Z,9.73
2023-02-03T01:05:09.899Z,9.27
2023-02-03T01:07:20.299Z,9.30
2023-02-03T05:16:37.543Z,16.23
2023-02-03T05:18:44.894Z,15.40
2023-02-03T05:20:51.717Z,16.25
2023-02-03T05:22:58.832Z,14.98
2023-02-03T05:25:05.778Z,14.88
2023-02-03T05:27:13.115Z,15.35
2023-02-03T05:29:20.022Z,15.90
2023-02-03T05:31:27.243Z,15.95
2023-02-03T05:33:36.036Z,16.48
2023-02-03T05:35:43.525Z,15.05
2023-02-03T05:37:50.500Z,15.70
2023-02-03T05:40:17.755Z,15.25
2023-02-03T05:42:23.297Z,16.67
2023-02-03T05:44:31.656Z,15.60
2023-02-03T05:46:38.633Z,16.63
2023-02-03T05:48:47.542Z,16.00
2023-02-03T05:50:54.379Z,16.60
2023-02-03T05:53:01.285Z,15.90
2023-02-03T05:55:08.440Z,16.25
2023-02-03T05:57:15.616Z,17.35
2023-02-03T05:59:22.644Z,16.83
2023-02-03T06:01:29.978Z,15.60
2023-02-03T06:03:36.901Z,15.73
2023-02-03T06:05:46.223Z,16.02
2023-02-03T06:07:53.223Z,12.68
2023-02-03T06:10:00.552Z,14.52
2023-02-03T06:12:07.734Z,13.90
2023-02-03T06:14:14.967Z,11.95
2023-02-03T06:16:21.984Z,12.55
2023-02-03T06:18:28.969Z,12.95
2023-02-03T06:20:35.828Z,12.30
2023-02-03T06:22:44.869Z,11.43
2023-02-03T06:24:51.745Z,13.27
2023-02-03T06:26:58.957Z,13.35
2023-02-03T06:29:05.902Z,12.10
2023-02-03T06:31:13.332Z,13.10
2023-02-03T06:33:20.263Z,13.48
2023-02-03T06:35:27.706Z,14.43
2023-02-03T06:37:36.625Z,14.38
2023-02-03T06:39:45.636Z,12.88
2023-02-03T06:41:52.881Z,12.95
2023-02-03T06:44:00.168Z,16.05
2023-02-03T06:46:07.371Z,13.48
2023-02-03T06:48:14.784Z,15.35
2023-02-03T06:50:22.017Z,15.18
2023-02-03T06:52:29.198Z,14.40
2023-02-03T06:54:36.129Z,13.52
2023-02-03T06:56:45.104Z,14.60
2023-02-03T06:58:51.973Z,14.00
2023-02-03T07:01:00.284Z,15.38
2023-02-03T07:03:07.206Z,14.85
2023-02-03T07:05:14.902Z,12.80
2023-02-03T07:07:21.892Z,14.00
2023-02-03T07:09:29.160Z,16.85
2023-02-03T07:11:36.599Z,17.98
2023-02-03T07:13:45.828Z,18.73
2023-02-03T07:15:52.997Z,18.73
2023-02-03T07:18:00.113Z,18.55
2023-02-03T07:20:07.581Z,15.98
2023-02-03T07:22:15.733Z,17.33
2023-02-03T07:24:22.661Z,17.98
2023-02-03T07:26:29.961Z,15.18
2023-02-03T07:28:39.172Z,15.93
2023-02-03T07:30:48.240Z,14.70
2023-02-03T07:32:56.095Z,20.13
2023-02-03T07:35:03.086Z,20.83
2023-02-03T07:37:10.407Z,19.92
2023-02-03T07:39:17.791Z,14.05
2023-02-03T07:41:25.080Z,15.75
2023-02-03T07:43:32.057Z,13.07
2023-02-03T07:45:39.339Z,15.68
2023-02-03T07:47:48.465Z,19.65
2023-02-03T07:49:56.825Z,17.20
2023-02-03T07:52:03.764Z,13.10
2023-02-03T07:54:12.160Z,9.60
2023-02-03T07:56:19.092Z,13.98
2023-02-03T07:58:26.114Z,9.80
2023-02-03T08:00:32.988Z,13.52
2023-02-03T08:02:40.221Z,10.82
2023-02-03T08:04:49.167Z,10.40
2023-02-03T08:06:56.555Z,10.60
2023-02-03T08:09:03.610Z,14.35
2023-02-03T08:11:11.459Z,14.32
2023-02-03T08:13:18.740Z,15.07
2023-02-03T08:15:26.091Z,14.10
2023-02-03T08:17:34.329Z,14.40
2023-02-03T08:19:41.462Z,14.52
2023-02-03T08:21:50.282Z,14.95
2023-02-03T08:23:57.567Z,16.95
2023-02-03T08:26:04.692Z,14.23
2023-02-03T08:28:12.088Z,12.60
2023-02-03T08:30:19.367Z,14.35
2023-02-03T08:32:28.393Z,13.32
2023-02-03T08:34:36.090Z,13.32
2023-02-03T08:36:45.015Z,14.48
2023-02-03T08:38:53.780Z,13.45
2023-02-03T08:41:01.173Z,13.68
2023-02-03T08:43:08.042Z,13.48
2023-02-03T08:45:15.260Z,14.48
2023-02-03T08:47:22.353Z,12.70
2023-02-03T08:49:30.715Z,13.88
2023-02-03T08:51:37.687Z,14.27
2023-02-03T08:53:44.868Z,13.07
2023-02-03T08:55:54.865Z,12.32
2023-02-03T08:58:02.314Z,13.85
2023-02-03T09:00:10.149Z,12.80
2023-02-03T09:02:21.003Z,12.68
2023-02-03T09:04:28.076Z,13.02
2023-02-03T09:06:35.467Z,11.45
2023-02-03T09:08:42.562Z,11.68
2023-02-03T09:10:49.744Z,11.48
2023-02-03T09:12:59.549Z,11.23
2023-02-03T09:15:06.874Z,10.93
2023-02-03T09:17:14.670Z,10.25
2023-02-03T09:19:22.002Z,10.13
2023-02-03T09:21:37.261Z,10.88
2023-02-03T09:23:53.468Z,11.23
2023-02-03T09:26:04.544Z,10.05
2023-02-03T09:28:13.461Z,10.63
2023-02-03T09:30:21.003Z,10.60
2023-02-03T09:32:28.297Z,11.40
2023-02-03T09:34:35.216Z,11.38
2023-02-03T09:36:43.171Z,11.55
2023-02-03T09:38:50.242Z,11.98
2023-02-03T09:41:11.361Z,11.02
2023-02-03T09:43:34.105Z,11.57
2023-02-03T09:45:41.611Z,11.90
2023-02-03T09:47:54.969Z,12.85
2023-02-03T09:50:04.506Z,12.23
2023-02-03T09:52:17.671Z,12.10
2023-02-03T09:54:31.103Z,12.15
2023-02-03T09:56:39.818Z,11.93
2023-02-03T09:58:49.097Z,12.55
2023-02-03T10:00:58.251Z,12.10
2023-02-03T10:03:10.882Z,12.13
2023-02-03T10:05:26.013Z,12.15
2023-02-03T10:07:44.654Z,13.63
2023-02-03T10:10:00.716Z,14.77
2023-02-03T10:12:34.193Z,12.75
2023-02-03T10:14:56.578Z,13.52
2023-02-03T10:17:20.148Z,12.90
2023-02-03T10:19:33.166Z,12.65
2023-02-03T10:21:43.519Z,12.32
2023-02-03T10:23:52.271Z,11.23
2023-02-03T10:26:03.008Z,11.80
2023-02-03T10:28:19.483Z,12.87
2023-02-03T10:30:30.236Z,13.07
2023-02-03T10:32:38.883Z,13.55
2023-02-03T10:34:52.516Z,13.40
2023-02-03T10:37:01.132Z,12.85
2023-02-03T10:39:18.655Z,12.55
2023-02-03T10:41:27.481Z,12.98
2023-02-03T10:43:52.537Z,12.07
2023-02-03T10:46:03.205Z,12.35
2023-02-03T10:48:16.972Z,12.90
2023-02-03T10:50:32.296Z,12.77
2023-02-03T10:52:40.152Z,12.90
2023-02-03T10:54:47.212Z,12.70
2023-02-03T10:56:54.098Z,13.85
2023-02-03T10:59:02.764Z,14.80
2023-02-03T11:01:14.558Z,14.43
2023-02-03T11:03:28.242Z,15.13
2023-02-03T11:05:35.114Z,15.40
2023-02-03T11:07:42.448Z,15.98
2023-02-03T11:09:49.375Z,17.55
2023-02-03T11:12:11.816Z,17.08
2023-02-03T11:14:20.634Z,17.05
2023-02-03T11:16:29.402Z,17.67
2023-02-03T11:18:50.829Z,17.13
2023-02-03T11:20:57.695Z,19.90
2023-02-03T11:23:06.597Z,19.08
2023-02-03T11:25:22.653Z,19.30
2023-02-03T11:27:32.548Z,18.40
2023-02-03T11:29:41.690Z,20.05
2023-02-03T11:31:52.699Z,19.98
2023-02-03T11:34:03.420Z,21.33
2023-02-03T11:36:13.036Z,20.08
2023-02-03T11:38:33.800Z,21.52
2023-02-03T11:40:42.214Z,19.88
2023-02-03T11:43:05.017Z,21.60
2023-02-03T11:45:19.053Z,21.92
2023-02-03T11:47:28.335Z,22.80
2023-02-03T11:50:15.144Z,23.20
2023-02-03T11:52:53.556Z,24.58
2023-02-03T11:55:11.337Z,27.85
2023-02-03T11:57:31.477Z,28.15
2023-02-03T12:00:00.398Z,27.67
2023-02-03T12:02:45.070Z,27.48
2023-02-03T12:05:09.612Z,35.40
2023-02-03T12:07:46.594Z,33.83
2023-02-03T12:10:01.765Z,37.40
2023-02-03T12:12:25.929Z,38.35
2023-02-03T12:14:48.946Z,37.75
2023-02-03T12:17:39.648Z,35.42
2023-02-03T12:20:01.789Z,33.92
2023-02-03T12:22:18.485Z,34.70
2023-02-03T12:24:39.645Z,37.78
2023-02-03T12:26:53.890Z,39.97
2023-02-03T12:29:07.592Z,39.83
2023-02-03T12:31:21.848Z,36.95
2023-02-03T12:33:33.698Z,37.75
2023-02-03T12:35:47.297Z,36.13
2023-02-03T12:37:59.090Z,34.80
2023-02-03T12:40:10.321Z,34.47
2023-02-03T12:42:22.187Z,33.88
2023-02-03T12:44:35.002Z,37.80
2023-02-03T12:46:46.094Z,35.25
2023-02-03T12:48:59.621Z,30.50
2023-02-03T12:51:12.896Z,30.98
2023-02-03T12:53:26.488Z,29.67
2023-02-03T12:55:40.686Z,29.80
2023-02-03T12:57:55.794Z,29.15
2023-02-03T13:00:14.805Z,30.30
2023-02-03T13:02:28.021Z,31.02
2023-02-03T13:04:42.426Z,31.23
2023-02-03T13:06:56.980Z,32.30
2023-02-03T13:09:09.691Z,32.78
2023-02-03T13:11:27.005Z,33.33
2023-02-03T13:13:39.159Z,33.25
2023-02-03T13:18:00.694Z,35.00
2023-02-03T13:20:17.020Z,35.95
2023-02-03T13:22:27.034Z,35.92
2023-02-03T13:24:34.480Z,35.53
2023-02-03T13:27:05.114Z,36.45
2023-02-03T13:29:33.792Z,37.88
2023-02-03T13:31:51.195Z,37.92
2023-02-03T13:34:20.107Z,39.42
2023-02-03T13:37:05.520Z,40.08
2023-02-03T13:39:32.687Z,40.55
2023-02-03T13:41:46.160Z,40.30
2023-02-03T13:43:55.850Z,40.17
2023-02-03T13:46:03.421Z,38.90
2023-02-03T13:48:17.129Z,38.60
2023-02-03T13:50:27.437Z,38.28
2023-02-03T13:52:39.986Z,39.28
2023-02-03T13:54:48.857Z,39.33
2023-02-03T13:57:03.368Z,36.90
2023-02-03T13:59:32.991Z,38.95
2023-02-03T14:01:42.353Z,38.40
2023-02-03T14:03:49.803Z,40.58
2023-02-03T14:05:58.415Z,39.95
2023-02-03T14:08:56.069Z,41.00
2023-02-03T14:11:44.877Z,40.88
2023-02-03T14:13:51.802Z,41.80
2023-02-03T14:16:25.690Z,40.30
2023-02-03T14:18:38.199Z,42.65
2023-02-03T14:21:16.480Z,42.40
2023-02-03T14:23:31.755Z,40.10
2023-02-03T14:25:44.210Z,39.88
2023-02-03T14:28:03.942Z,39.15
2023-02-03T14:30:14.343Z,37.47
2023-02-03T14:32:21.404Z,39.97
2023-02-03T14:34:39.043Z,38.47
2023-02-03T14:36:53.990Z,37.65
2023-02-03T14:39:03.281Z,38.28
2023-02-03T14:41:11.493Z,38.25
2023-02-03T14:43:38.820Z,37.58
2023-02-03T14:46:10.892Z,36.05
2023-02-03T14:48:32.736Z,36.63
2023-02-03T14:50:54.769Z,36.00
2023-02-03T14:55:38.826Z,35.15
2023-02-03T14:57:51.384Z,34.45
2023-02-03T15:00:04.914Z,33.15
2023-02-03T15:02:21.774Z,34.55
2023-02-03T15:04:28.825Z,34.70
2023-02-03T15:06:44.927Z,33.00
2023-02-03T15:08:54.071Z,31.98
2023-02-03T15:11:01.353Z,33.75
2023-02-03T15:13:08.234Z,35.58
2023-02-03T15:15:24.746Z,34.38
2023-02-03T15:17:33.038Z,33.72
2023-02-03T15:19:43.625Z,33.33
2023-02-03T15:21:50.867Z,34.50
2023-02-03T15:23:58.218Z,32.05
2023-02-03T15:26:07.140Z,33.97
2023-02-03T15:28:23.080Z,32.25
2023-02-03T15:30:32.882Z,31.52
2023-02-03T15:32:44.506Z,32.90
2023-02-03T15:34:52.873Z,32.97
2023-02-03T15:37:02.352Z,33.63
2023-02-03T15:39:17.418Z,33.80
2023-02-03T15:41:27.120Z,32.20
2023-02-03T15:43:38.572Z,33.88
2023-02-03T15:45:56.399Z,32.42
2023-02-03T15:48:07.325Z,30.67
2023-02-03T15:50:31.758Z,32.95
2023-02-03T15:52:43.645Z,33.25
2023-02-03T15:57:06.547Z,32.80
2023-02-03T15:59:25.236Z,33.95
2023-02-03T16:01:34.716Z,32.72
2023-02-03T16:03:44.546Z,33.55
2023-02-03T16:05:52.328Z,34.03
2023-02-03T16:07:59.721Z,34.08
2023-02-03T16:10:06.571Z,35.00
2023-02-03T16:12:21.189Z,36.72
2023-02-03T16:14:37.250Z,35.70
2023-02-03T16:17:04.251Z,36.47
2023-02-03T16:19:18.774Z,37.08
2023-02-03T16:21:35.631Z,37.17
2023-02-03T16:23:53.479Z,37.50
2023-02-03T16:26:20.395Z,36.38
2023-02-03T16:28:43.211Z,36.67
2023-02-03T16:31:18.593Z,37.63
2023-02-03T16:33:43.946Z,36.58
2023-02-03T16:36:07.771Z,37.47
2023-02-03T16:38:35.730Z,38.15
2023-02-03T16:40:59.245Z,36.42
2023-02-03T16:43:23.174Z,38.60
2023-02-03T16:45:46.578Z,38.03
2023-02-03T16:48:10.096Z,37.58
2023-02-03T16:50:39.106Z,37.75
2023-02-03T16:52:46.996Z,39.20
2023-02-03T16:54:54.056Z,39.10
2023-02-03T16:57:00.727Z,38.28
2023-02-03T16:59:07.951Z,40.20
2023-02-03T17:01:16.244Z,39.70
2023-02-03T17:03:24.857Z,37.40
2023-02-03T17:05:33.355Z,37.00
2023-02-03T17:07:40.730Z,38.55
2023-02-03T17:09:47.572Z,38.42
2023-02-03T17:11:54.955Z,37.58
2023-02-03T17:14:01.882Z,37.63
2023-02-03T17:16:14.414Z,36.63
2023-02-03T17:18:21.594Z,35.50
2023-02-03T17:20:29.353Z,38.15
2023-02-03T17:22:37.918Z,37.63
2023-02-03T17:24:46.604Z,38.20
2023-02-03T17:26:53.732Z,36.55
2023-02-03T17:29:04.142Z,35.58
2023-02-03T17:31:11.931Z,33.63
2023-02-03T17:33:19.175Z,34.47
2023-02-03T17:35:25.988Z,34.65
2023-02-03T17:37:37.521Z,34.95
2023-02-03T17:54:07.678Z,33.50
2023-02-03T17:56:16.497Z,34.30
2023-02-03T17:58:23.472Z,33.90
2023-02-03T18:00:31.137Z,33.60
2023-02-03T18:02:38.116Z,34.10
2023-02-03T18:04:45.671Z,33.17
2023-02-03T18:06:54.544Z,33.80
2023-02-03T18:09:03.513Z,33.53
2023-02-03T18:11:13.307Z,31.02
2023-02-03T18:13:24.379Z,31.88
2023-02-03T18:15:31.254Z,34.17
2023-02-03T18:17:38.432Z,36.35
2023-02-03T18:19:49.263Z,34.45
2023-02-03T18:22:02.577Z,33.63
2023-02-03T18:24:10.111Z,32.42
2023-02-03T18:26:19.132Z,32.90
2023-02-03T18:28:26.364Z,34.67
2023-02-03T18:30:33.858Z,33.13
2023-02-03T18:32:40.824Z,34.08
2023-02-03T18:34:48.111Z,33.78
2023-02-03T18:36:55.035Z,31.95
2023-02-03T18:39:02.064Z,33.42
2023-02-03T18:41:09.919Z,31.25
2023-02-03T18:43:19.103Z,32.35
2023-02-03T18:45:26.037Z,32.42
2023-02-03T18:47:33.167Z,33.60
2023-02-03T18:49:41.829Z,32.67
2023-02-03T18:51:49.014Z,33.83
2023-02-03T18:53:59.176Z,33.85
2023-02-03T18:56:08.889Z,34.15
2023-02-03T18:58:18.749Z,33.30
2023-02-03T19:00:26.137Z,34.22
2023-02-03T19:02:33.295Z,34.28
2023-02-03T19:04:40.802Z,35.00
2023-02-03T19:06:48.717Z,35.03
2023-02-03T19:08:56.238Z,35.30
2023-02-03T19:11:03.111Z,34.15
2023-02-03T19:13:10.238Z,34.35
2023-02-03T19:15:19.688Z,35.40
2023-02-03T19:17:27.232Z,32.40
2023-02-03T19:19:34.061Z,34.65
2023-02-03T19:21:41.239Z,33.08
2023-02-03T19:23:48.114Z,32.97
2023-02-03T19:25:55.637Z,32.95
2023-02-03T19:28:02.655Z,32.28
2023-02-03T19:30:10.551Z,31.50
2023-02-03T19:32:19.295Z,30.85
2023-02-03T19:34:28.218Z,29.58
2023-02-03T19:36:35.421Z,30.55
2023-02-03T19:38:42.786Z,31.50
2023-02-03T19:40:50.022Z,29.90
2023-02-03T19:42:57.089Z,31.33
2023-02-03T19:45:03.921Z,29.85
2023-02-03T19:47:11.259Z,29.85
2023-02-03T19:49:20.137Z,28.98
2023-02-03T19:51:27.365Z,28.17
2023-02-03T19:53:34.189Z,27.75
2023-02-03T19:55:41.428Z,28.60
2023-02-03T19:57:48.338Z,26.55
2023-02-03T19:59:55.370Z,25.42
2023-02-03T20:02:12.635Z,24.95
2023-02-03T20:04:22.900Z,26.73
2023-02-03T20:06:30.444Z,26.35
2023-02-03T20:08:37.824Z,26.02
2023-02-03T20:10:46.414Z,28.30
2023-02-03T20:12:53.712Z,27.60
2023-02-03T20:15:02.387Z,28.15
2023-02-03T20:17:09.621Z,27.63
2023-02-03T20:19:16.597Z,27.08
2023-02-03T20:21:25.678Z,27.30
2023-02-03T20:23:32.654Z,26.88
2023-02-03T20:25:39.936Z,26.23
2023-02-03T20:27:46.830Z,27.33
2023-02-03T20:29:55.182Z,27.75
2023-02-03T20:32:02.081Z,26.58
2023-02-03T20:34:09.223Z,27.70
2023-02-03T20:36:16.254Z,28.33
2023-02-03T20:38:25.347Z,26.35
2023-02-03T20:40:32.430Z,27.67
2023-02-03T20:42:39.639Z,27.52
2023-02-03T20:44:46.775Z,27.33
2023-02-03T20:46:56.846Z,28.52
2023-02-03T20:49:04.057Z,27.90
2023-02-03T20:51:14.564Z,27.35
2023-02-03T20:53:24.765Z,26.20
2023-02-03T20:55:31.692Z,27.60
2023-02-03T20:57:39.083Z,28.90
2023-02-03T20:59:47.178Z,25.88
2023-02-03T21:01:54.305Z,29.77
2023-02-03T21:04:17.731Z,28.70
2023-02-03T21:06:25.321Z,28.95
2023-02-03T21:08:34.141Z,28.00
2023-02-03T21:10:41.940Z,27.35
2023-02-03T21:12:49.172Z,25.10
2023-02-03T21:14:56.304Z,24.52
2023-02-03T21:17:03.287Z,26.95
2023-02-03T21:19:17.889Z,28.67
2023-02-03T21:21:30.380Z,28.23
2023-02-03T21:23:42.898Z,28.55
2023-02-03T21:25:50.595Z,28.45
2023-02-03T21:27:59.236Z,28.67
2023-02-03T21:30:25.283Z,26.13
2023-02-03T21:32:40.487Z,27.38
2023-02-03T21:34:48.297Z,27.00
2023-02-03T21:36:55.481Z,27.10
2023-02-03T21:39:04.400Z,27.60
2023-02-03T21:41:18.684Z,28.40
2023-02-03T21:43:27.162Z,26.88
2023-02-03T21:45:45.633Z,26.77
2023-02-03T21:47:54.328Z,27.15
2023-02-03T21:50:04.438Z,28.25
2023-02-03T21:52:15.806Z,27.60
2023-02-03T21:54:32.304Z,25.42
2023-02-03T21:56:43.172Z,26.33
2023-02-03T21:58:51.788Z,26.53
2023-02-03T22:00:59.579Z,27.90
2023-02-03T22:03:09.407Z,27.58
2023-02-03T22:05:19.461Z,27.65
2023-02-03T22:07:26.611Z,26.77
2023-02-03T22:09:35.532Z,27.52
2023-02-03T22:11:42.864Z,26.88
2023-02-03T22:13:50.710Z,29.25
2023-02-03T22:15:58.303Z,28.33
2023-02-03T22:18:05.227Z,28.85
2023-02-03T22:20:13.176Z,29.30
2023-02-03T22:22:20.102Z,28.65
2023-02-03T22:24:27.134Z,26.02
2023-02-03T22:26:35.805Z,25.80
2023-02-03T22:28:43.336Z,26.92
2023-02-03T22:30:50.592Z,26.73
2023-02-03T22:32:58.982Z,30.10
2023-02-03T22:35:05.957Z,29.65
2023-02-03T22:37:13.239Z,30.38
2023-02-03T22:39:20.115Z,29.75
2023-02-03T22:41:27.281Z,28.88
2023-02-03T22:43:36.164Z,29.70
2023-02-03T22:45:43.397Z,30.63
2023-02-03T22:47:50.430Z,30.08
2023-02-03T22:49:57.611Z,29.77
2023-02-03T22:52:04.483Z,29.27
2023-02-03T22:54:11.446Z,28.27
2023-02-03T22:56:18.283Z,27.85
2023-02-03T22:58:25.518Z,29.13
2023-02-03T23:00:34.407Z,29.42
2023-02-03T23:02:42.027Z,28.38
2023-02-03T23:04:49.003Z,29.02
2023-02-03T23:06:56.187Z,28.95
2023-02-03T23:09:03.883Z,32.28
2023-02-03T23:11:10.794Z,33.28
2023-02-03T23:13:17.987Z,35.15
2023-02-03T23:15:24.913Z,33.83
2023-02-03T23:17:33.787Z,32.65
2023-02-03T23:19:40.718Z,36.05
2023-02-03T23:21:47.593Z,35.58
2023-02-03T23:23:54.553Z,30.33
2023-02-03T23:26:01.850Z,29.98
2023-02-03T23:28:09.167Z,33.15
2023-02-03T23:30:17.448Z,31.52
2023-02-03T23:32:24.319Z,31.25
2023-02-03T23:34:49.572Z,31.80
2023-02-03T23:37:02.296Z,33.03
2023-02-03T23:39:09.467Z,33.10
2023-02-03T23:41:16.288Z,32.30
2023-02-03T23:43:23.520Z,30.70
2023-02-03T23:45:30.400Z,31.50
2023-02-03T23:47:37.679Z,33.47
2023-02-03T23:49:46.396Z,32.67
2023-02-03T23:51:53.573Z,30.55
2023-02-03T23:54:00.604Z,31.65
2023-02-03T23:56:07.936Z,31.35
2023-02-03T23:58:14.809Z,33.00
